Date,TemperatureHighF,TemperatureAvgF,TemperatureLowF,DewpointHighF,DewpointAvgF,DewpointLowF,HumidityHigh,HumidityAvg,HumidityLow,PressureMaxIn,PressureMinIn,WindSpeedMaxMPH,WindSpeedAvgMPH,GustSpeedMaxMPH,PrecipitationSumIn
2014-1-1,30,24,11,23,14,8,92,65,44,30.40,30.19,0,-999,0,0.00
2014-1-2,19,12,7,12,7,3,89,80,64,30.42,30.24,0,-999,0,0.00
2014-1-3,34,26,13,25,18,6,90,70,46,30.24,29.88,0,-999,0,0.00
2014-1-4,20,16,12,9,6,1,83,65,48,30.13,29.96,0,-999,0,0.00
2014-1-5,14,10,1,8,-4,-10,82,52,37,30.37,30.13,0,-999,0,0.00
2014-1-6,12,3,-6,-2,-7,-12,77,63,47,30.46,30.32,0,-999,0,0.00
2014-1-7,18,12,2,9,2,-3,80,65,56,30.32,30.16,0,-999,0,0.00
2014-1-8,26,20,14,22,14,8,89,80,68,30.18,30.10,0,-999,0,0.00
2014-1-9,26,23,18,25,20,10,94,86,69,30.10,29.91,0,-999,0,0.00
2014-1-10,31,25,17,19,16,8,89,70,53,30.11,29.94,0,-999,0,0.00
2014-1-11,34,31,27,30,27,17,96,85,59,30.15,29.80,0,-999,0,0.00
2014-1-12,27,23,22,24,17,10,89,75,52,30.18,29.83,0,-999,0,0.00
2014-1-13,34,30,22,22,19,14,87,63,48,30.34,30.17,0,-999,0,0.00
2014-1-14,35,30,24,18,16,14,69,54,43,30.53,30.33,0,-999,0,0.00
2014-1-15,36,26,16,18,14,11,82,61,39,30.51,30.38,0,-999,0,0.00
2014-1-16,23,16,7,12,9,4,90,72,56,30.49,30.43,0,-999,0,0.00
2014-1-17,22,15,6,11,7,2,90,73,56,30.43,30.34,0,-999,0,0.00
2014-1-18,23,14,6,11,7,1,89,73,55,30.46,30.38,0,-999,0,0.00
2014-1-19,24,14,6,8,6,2,88,72,50,30.39,30.25,0,-999,0,0.00
2014-1-20,25,16,8,10,7,3,83,66,51,30.52,30.29,0,-999,0,0.00
2014-1-21,19,10,0,7,2,-4,88,70,51,30.53,30.35,0,-999,0,0.00
2014-1-22,24,11,4,16,5,-2,92,77,58,30.36,30.18,0,-999,0,0.00
2014-1-23,27,13,6,18,7,2,92,75,57,30.51,30.27,0,-999,0,0.00
2014-1-24,20,15,6,5,3,0,82,60,47,30.55,30.46,0,-999,0,0.00
2014-1-25,23,18,11,8,6,3,70,59,48,30.48,30.28,0,-999,0,0.00
2014-1-26,24,16,5,12,7,0,87,66,51,30.28,30.13,0,-999,0,0.00
2014-1-27,24,19,9,17,6,-11,90,60,33,30.27,30.10,0,-999,0,0.00
2014-1-28,13,3,-7,2,-10,-14,74,56,38,30.32,30.21,0,-999,0,0.00
2014-1-29,29,20,10,28,17,4,97,89,74,30.22,29.74,0,-999,0,0.00
2014-1-30,30,26,22,25,22,17,94,86,67,29.85,29.80,0,-999,0,0.00
2014-1-31,24,20,14,18,10,4,84,68,43,29.91,29.84,0,-999,0,0.00
2014-2-1,20,15,7,12,6,-1,87,68,42,30.08,29.89,0,-999,0,0.00
2014-2-2,20,11,3,13,5,-1,83,77,66,30.08,29.96,0,-999,0,0.00
2014-2-3,19,15,10,15,11,6,89,84,72,29.96,29.85,0,-999,0,0.00
2014-2-4,16,7,0,12,0,-6,85,74,67,30.09,29.85,0,-999,0,0.00
2014-2-5,3,-2,-6,-3,-7,-11,80,77,70,30.12,30.03,0,-999,0,0.00
2014-2-6,5,0,-5,1,-6,-11,83,77,66,30.03,29.88,0,-999,0,0.00
2014-2-7,23,15,5,18,11,1,90,85,71,29.90,29.79,0,-999,0,0.00
2014-2-8,32,27,18,28,21,-100,96,83,68,29.97,29.78,0,-999,0,0.00
2014-2-9,35,32,29,29,22,16,95,69,51,30.06,29.91,0,-999,0,0.00
2014-2-10,33,28,23,21,16,10,72,60,38,30.22,30.05,0,-999,0,0.00
2014-2-11,33,28,23,22,19,13,81,68,56,30.20,30.04,0,-999,0,0.00
2014-2-12,31,28,25,30,26,19,97,90,68,30.20,29.97,0,-999,0,0.00
2014-2-13,37,33,31,31,27,18,97,81,57,30.08,29.98,0,-999,0,0.00
2014-2-14,32,28,24,31,21,5,97,80,38,30.15,29.96,0,-999,0,0.00
2014-2-15,39,34,31,32,30,27,96,86,61,30.12,29.97,0,-999,0,0.00
2014-2-16,38,31,23,31,23,7,93,72,49,30.20,29.85,0,-999,0,0.00
2014-2-17,40,29,18,15,11,8,68,49,28,30.22,29.96,0,-999,0,0.00
2014-2-18,33,30,24,23,16,10,84,58,37,30.17,29.93,0,-999,0,0.00
2014-2-19,33,25,18,26,12,-5,95,60,25,30.02,29.77,0,-999,0,0.00
2014-2-20,23,18,11,19,7,-3,92,62,41,30.16,30.00,0,-999,0,0.00
2014-2-21,28,24,21,21,16,9,93,73,51,30.02,29.95,0,-999,0,0.00
2014-2-22,25,22,20,20,16,8,91,78,51,29.99,29.94,0,-999,0,0.00
2014-2-23,36,29,21,23,20,16,91,68,45,30.08,29.98,0,-999,0,0.00
2014-2-24,41,37,30,25,20,16,83,51,40,30.13,30.03,0,-999,0,0.00
2014-2-25,39,33,19,32,19,1,90,59,32,30.21,30.05,0,-999,0,0.00
2014-2-26,26,15,4,9,4,-3,80,62,46,30.22,30.04,0,-999,0,0.00
2014-2-27,34,24,13,30,15,8,95,70,55,30.04,29.79,0,-999,0,0.00
2014-2-28,35,32,30,30,29,25,96,89,71,29.86,29.74,0,-999,0,0.00
2014-3-1,32,27,22,30,24,19,95,90,84,29.91,29.64,0,-999,0,0.00
2014-3-2,35,30,25,31,27,23,96,90,82,30.09,29.91,0,-999,0,0.00
2014-3-3,39,33,31,31,29,24,96,85,55,30.12,30.05,0,-999,0,0.00
2014-3-4,39,33,28,31,27,20,96,82,47,30.17,30.00,0,-999,0,0.00
2014-3-5,40,34,27,30,25,23,86,72,54,30.21,30.14,0,-999,0,0.00
2014-3-6,36,33,31,33,29,23,95,85,60,30.15,29.99,0,-999,0,0.00
2014-3-7,37,32,28,27,22,16,85,67,43,30.29,30.05,0,-999,0,0.00
2014-3-8,38,28,19,23,20,16,88,70,50,30.44,30.30,0,-999,0,0.00
2014-3-9,46,37,28,26,20,15,65,52,33,30.37,30.25,0,-999,0,0.00
2014-3-10,44,36,29,32,28,22,94,74,41,30.26,29.93,0,-999,0,0.00
2014-3-11,34,28,24,27,18,9,95,67,34,30.40,30.00,0,-999,0,0.00
2014-3-12,24,17,12,13,10,8,85,74,61,30.44,30.39,0,-999,0,0.00
2014-3-13,41,34,27,18,16,13,56,47,36,30.17,30.12,0,-999,0,0.00
2014-3-14,30,23,18,16,15,13,79,70,56,30.18,30.17,0,-999,0,0.00
2014-3-15,37,33,30,13,11,8,48,40,30,30.44,30.33,0,-999,0,0.00
2014-3-16,48,39,24,21,16,11,57,40,29,30.44,30.11,0,-999,0,0.00
2014-3-17,42,34,23,25,19,12,94,58,30,30.12,29.66,0,-999,0,0.00
2014-3-18,31,24,19,19,14,8,84,66,39,30.16,29.93,0,-999,0,0.00
2014-3-19,37,31,16,12,9,7,70,41,33,30.23,30.12,0,-999,0,0.00
2014-3-20,41,34,27,14,8,-100,47,36,29,30.13,30.01,0,-999,0,0.00
2014-3-21,35,24,14,9,3,-3,56,39,24,30.17,30.07,0,-999,0,0.00
2014-3-22,34,24,15,10,6,4,64,46,28,30.24,30.09,0,-999,0,0.00
2014-3-23,38,31,19,18,7,1,53,38,22,30.23,30.14,0,-999,0,0.00
2014-3-24,36,28,22,12,8,6,53,43,35,30.30,30.18,0,-999,0,0.00
2014-3-25,50,43,28,18,15,11,54,32,21,30.17,29.85,0,-999,0,0.00
2014-3-26,41,35,31,28,20,13,84,55,33,29.85,29.71,0,-999,0,0.00
2014-3-27,33,29,25,28,22,15,95,77,47,29.97,29.75,0,-999,0,0.00
2014-3-28,38,31,24,23,17,13,75,56,36,30.22,29.98,0,-999,0,0.00
2014-3-29,39,35,32,32,25,18,91,68,50,30.21,30.01,0,-999,0,0.00
2014-3-30,35,32,30,31,29,20,95,88,57,30.01,29.74,0,-999,0,0.00
2014-3-31,38,30,25,24,19,11,91,67,33,30.10,29.94,0,-999,0,0.00
2014-4-1,41,28,18,27,17,13,94,65,39,29.99,29.81,0,-999,0,0.00
2014-4-2,34,28,23,23,16,13,85,61,43,30.01,29.86,0,-999,0,0.00
2014-4-3,36,27,18,17,14,8,81,59,30,30.16,30.02,0,-999,0,0.00
2014-4-4,36,27,16,27,18,11,87,71,59,30.16,30.03,0,-999,0,0.00
2014-4-5,39,32,27,28,23,19,94,69,45,30.12,30.03,0,-999,0,0.00
2014-4-6,40,32,26,30,25,14,94,78,42,30.22,30.11,0,-999,0,0.00
2014-4-7,46,35,25,26,20,15,68,53,40,30.36,30.22,0,-999,0,0.00
2014-4-8,55,41,29,27,25,23,79,55,30,30.39,30.27,0,-999,0,0.00
2014-4-9,56,48,39,27,24,16,57,39,26,30.27,30.08,0,-999,0,0.00
2014-4-10,51,43,34,25,20,15,60,41,27,30.22,30.12,0,-999,0,0.00
2014-4-11,54,43,31,24,20,15,59,40,23,30.21,30.03,0,-999,0,0.00
2014-4-12,52,44,34,25,21,14,64,42,25,30.04,29.91,0,-999,0,0.00